Terminal Aerodrome Forecast
Issued by NWS

Home | Current Version | Previous Version | Text Only | Print | Product List | Glossary Off
Versions: 1 2 3 4 5 6 7 8 9 10 11 12 13 14 15 16 17 18 19 20

000
FTUS43 KMPX 030757 AAA
TAFAXN
TAF AMD
KAXN 030757Z 0308/0406 12011KT 6SM BR OVC006
      TEMPO 0308/0312 3SM BR
     FM031600 13012G19KT P6SM SCT015=

USA.gov is the U.S. government's official web portal to all federal, state and local government web resources and services.